Time;durP1;ratioP1;P1;durP2;ratioP2;P2;SDS_P1;SDS_P2;PMS_P1;PMS_P2;Temp;Humidity;BMP_temperature;BMP_pressure;BME280_temperature;BME280_humidity;BME280_pressure;Samples;Min_cycle;Max_cycle;Signal;HPM_P1;HPM_P2
2022/05/13 00:00:15;;;;;;;17.95;9.13;;;;;;;;;;5010885;28;20040;-74
2022/05/13 00:02:43;;;;;;;21.10;8.93;;;;;;;;;;5012375;28;20056;-74
2022/05/13 00:05:10;;;;;;;19.95;9.40;;;;;;;;;;5027030;28;20407;-74
2022/05/13 00:07:36;;;;;;;19.25;8.50;;;;;;;;;;5023305;28;20021;-74
2022/05/13 00:10:05;;;;;;;20.67;8.80;;;;;;;;;;5019676;28;20744;-73
2022/05/13 00:12:40;;;;;;;17.60;9.02;;;;;;;;;;5016718;28;20041;-74
2022/05/13 00:15:08;;;;;;;21.38;9.50;;;;;;;;;;5016767;28;20037;-74
2022/05/13 00:17:35;;;;;;;21.63;10.02;;;;;;;;;;5012347;28;20045;-75
2022/05/13 00:20:02;;;;;;;18.52;9.23;;;;;;;;;;5015916;28;20030;-75
2022/05/13 00:22:29;;;;;;;18.83;10.13;;;;;;;;;;5017790;28;20033;-74
2022/05/13 00:24:55;;;;;;;21.25;10.95;;;;;;;;;;5016500;28;20562;-75
2022/05/13 00:27:22;;;;;;;22.70;11.02;;;;;;;;;;5018474;28;20029;-74
2022/05/13 00:29:48;;;;;;;25.15;11.80;;;;;;;;;;5032039;28;20029;-74
2022/05/13 00:32:15;;;;;;;24.20;11.43;;;;;;;;;;5018562;28;20483;-74
2022/05/13 00:34:41;;;;;;;30.13;11.65;;;;;;;;;;5031685;28;20376;-74
2022/05/13 00:37:07;;;;;;;21.70;11.55;;;;;;;;;;5023663;28;20492;-74
2022/05/13 00:39:33;;;;;;;19.52;10.32;;;;;;;;;;5020979;28;20041;-74
2022/05/13 00:42:09;;;;;;;19.88;10.32;;;;;;;;;;5019204;28;20067;-74
2022/05/13 00:44:36;;;;;;;20.77;9.93;;;;;;;;;;5030679;28;20025;-74
2022/05/13 00:47:03;;;;;;;26.00;10.85;;;;;;;;;;5019552;28;20037;-74
2022/05/13 00:49:31;;;;;;;23.48;10.95;;;;;;;;;;5021428;28;20120;-74
2022/05/13 00:51:59;;;;;;;22.73;10.77;;;;;;;;;;5021084;28;20054;-74
2022/05/13 00:54:25;;;;;;;21.23;11.73;;;;;;;;;;5021141;28;20021;-74
2022/05/13 00:56:51;;;;;;;20.92;10.25;;;;;;;;;;5018488;28;20384;-74
2022/05/13 00:59:20;;;;;;;19.90;10.85;;;;;;;;;;5017769;28;20040;-74
2022/05/13 01:01:48;;;;;;;25.23;11.35;;;;;;;;;;5031660;28;20024;-74
2022/05/13 01:04:16;;;;;;;22.65;12.45;;;;;;;;;;5029362;28;20116;-74
2022/05/13 01:06:44;;;;;;;21.77;12.40;;;;;;;;;;5026718;28;20030;-74
2022/05/13 01:09:11;;;;;;;22.92;12.57;;;;;;;;;;5020349;28;20087;-74
2022/05/13 01:11:38;;;;;;;26.90;11.65;;;;;;;;;;5020887;28;20034;-74
2022/05/13 01:14:24;;;;;;;23.48;11.50;;;;;;;;;;5018600;28;20022;-74
2022/05/13 01:19:50;;;;;;;20.63;11.68;;;;;;;;;;4955356;29;20039;-74
2022/05/13 01:22:17;;;;;;;21.67;12.20;;;;;;;;;;4951598;28;20042;-74
2022/05/13 01:24:44;;;;;;;19.77;11.25;;;;;;;;;;4950746;29;20583;-73
2022/05/13 01:27:10;;;;;;;18.90;10.70;;;;;;;;;;4951471;29;20070;-74
2022/05/13 01:29:37;;;;;;;21.40;11.75;;;;;;;;;;4952847;29;20488;-74
2022/05/13 01:32:03;;;;;;;17.75;11.43;;;;;;;;;;4954448;29;20039;-74
2022/05/13 01:34:29;;;;;;;22.10;10.88;;;;;;;;;;4953622;29;20031;-74
2022/05/13 01:36:55;;;;;;;25.38;11.32;;;;;;;;;;4951532;29;20441;-73
2022/05/13 01:39:21;;;;;;;23.88;11.25;;;;;;;;;;4951277;28;20042;-73
2022/05/13 01:41:48;;;;;;;22.08;11.40;;;;;;;;;;4951493;29;20560;-73
2022/05/13 01:44:14;;;;;;;20.05;11.07;;;;;;;;;;4953737;29;20038;-73
2022/05/13 01:46:40;;;;;;;20.15;11.45;;;;;;;;;;4952988;29;20031;-73
2022/05/13 01:49:06;;;;;;;23.27;11.38;;;;;;;;;;4952243;29;20501;-73
2022/05/13 01:51:33;;;;;;;24.02;12.18;;;;;;;;;;4951897;29;20063;-74
2022/05/13 01:54:00;;;;;;;28.95;13.18;;;;;;;;;;4952384;29;20035;-73
2022/05/13 01:56:26;;;;;;;25.23;13.05;;;;;;;;;;5011798;28;20261;-74
2022/05/13 01:58:52;;;;;;;35.25;14.98;;;;;;;;;;5019548;28;20030;-73
2022/05/13 02:01:18;;;;;;;25.95;12.93;;;;;;;;;;5023256;28;20026;-73
2022/05/13 02:03:44;;;;;;;34.75;14.63;;;;;;;;;;5019977;28;20112;-73
2022/05/13 02:06:19;;;;;;;33.70;15.65;;;;;;;;;;5022771;28;20030;-73
2022/05/13 02:08:46;;;;;;;28.90;14.77;;;;;;;;;;5017479;28;20065;-73
2022/05/13 02:11:12;;;;;;;31.58;17.00;;;;;;;;;;5017536;28;20033;-73
2022/05/13 02:13:38;;;;;;;34.92;15.65;;;;;;;;;;5022359;28;20052;-73
2022/05/13 02:16:04;;;;;;;36.97;16.15;;;;;;;;;;5019387;28;20060;-73
2022/05/13 02:18:31;;;;;;;29.73;15.38;;;;;;;;;;5020771;28;20030;-73
2022/05/13 02:20:57;;;;;;;28.45;13.88;;;;;;;;;;5026074;28;20458;-74
2022/05/13 02:23:23;;;;;;;26.52;14.35;;;;;;;;;;5031310;28;20033;-74
2022/05/13 02:25:50;;;;;;;30.08;14.25;;;;;;;;;;5018990;28;20071;-73
2022/05/13 02:28:16;;;;;;;33.13;14.48;;;;;;;;;;5019611;28;20030;-73
2022/05/13 02:30:43;;;;;;;30.75;13.88;;;;;;;;;;5019430;28;20448;-73
2022/05/13 02:33:09;;;;;;;30.90;14.88;;;;;;;;;;5021910;28;20550;-74
2022/05/13 02:35:35;;;;;;;30.60;14.63;;;;;;;;;;5015392;28;20511;-73
2022/05/13 02:38:01;;;;;;;33.45;14.82;;;;;;;;;;5017860;28;20068;-74
2022/05/13 02:43:12;;;;;;;27.00;14.48;;;;;;;;;;5019164;28;20068;-74
2022/05/13 02:45:39;;;;;;;31.10;14.75;;;;;;;;;;5019271;28;20036;-74
2022/05/13 02:48:05;;;;;;;27.63;14.70;;;;;;;;;;5019154;28;20038;-74
2022/05/13 02:50:32;;;;;;;28.45;14.52;;;;;;;;;;5014432;28;20029;-74
2022/05/13 02:52:59;;;;;;;28.88;15.48;;;;;;;;;;5018259;28;20407;-74
2022/05/13 02:55:25;;;;;;;27.20;15.13;;;;;;;;;;5019289;28;20032;-74
2022/05/13 02:57:51;;;;;;;30.73;16.65;;;;;;;;;;5022717;28;20033;-74
2022/05/13 03:00:18;;;;;;;29.70;15.77;;;;;;;;;;5022395;28;20400;-74
2022/05/13 03:02:44;;;;;;;31.45;15.52;;;;;;;;;;5029348;28;20051;-74
2022/05/13 03:05:11;;;;;;;33.58;16.23;;;;;;;;;;5014660;28;20029;-74
2022/05/13 03:07:37;;;;;;;31.75;16.80;;;;;;;;;;5030134;28;20375;-73
2022/05/13 03:10:05;;;;;;;30.98;16.75;;;;;;;;;;5021059;28;20471;-75
2022/05/13 03:12:33;;;;;;;29.85;15.88;;;;;;;;;;5018568;28;20037;-74
2022/05/13 03:14:59;;;;;;;30.38;16.40;;;;;;;;;;5018402;28;20026;-73
2022/05/13 03:17:25;;;;;;;35.13;16.05;;;;;;;;;;5014470;28;20038;-73
2022/05/13 03:19:51;;;;;;;26.73;15.07;;;;;;;;;;5016588;28;20091;-73
2022/05/13 03:22:17;;;;;;;29.85;15.05;;;;;;;;;;5018450;28;20044;-73
2022/05/13 03:24:43;;;;;;;28.50;15.20;;;;;;;;;;5018353;28;20057;-73
2022/05/13 03:27:10;;;;;;;27.90;15.15;;;;;;;;;;5015443;28;20040;-74
2022/05/13 03:29:36;;;;;;;28.23;15.13;;;;;;;;;;5029699;28;20487;-74
2022/05/13 03:32:03;;;;;;;30.83;15.15;;;;;;;;;;5016933;28;20484;-75
2022/05/13 03:34:29;;;;;;;30.60;15.48;;;;;;;;;;5018390;28;20125;-75
2022/05/13 03:36:55;;;;;;;28.45;15.18;;;;;;;;;;5022467;28;20066;-75
2022/05/13 03:39:21;;;;;;;33.70;16.98;;;;;;;;;;5026973;28;20550;-75
2022/05/13 03:41:47;;;;;;;31.50;15.15;;;;;;;;;;5014043;28;20026;-75
2022/05/13 03:44:13;;;;;;;29.45;14.85;;;;;;;;;;5029739;28;20038;-75
2022/05/13 03:46:40;;;;;;;34.72;16.95;;;;;;;;;;5020724;28;20026;-75
2022/05/13 03:49:06;;;;;;;28.08;15.80;;;;;;;;;;5017711;28;20113;-76
2022/05/13 03:51:32;;;;;;;25.27;14.85;;;;;;;;;;5018000;28;20048;-75
2022/05/13 03:53:58;;;;;;;31.95;16.75;;;;;;;;;;5020664;28;20031;-75
2022/05/13 03:56:25;;;;;;;26.75;15.07;;;;;;;;;;5014083;28;20034;-75
2022/05/13 03:58:51;;;;;;;29.65;15.68;;;;;;;;;;5017471;28;20113;-75
2022/05/13 04:01:17;;;;;;;37.92;15.50;;;;;;;;;;5016367;28;20514;-75
2022/05/13 04:03:46;;;;;;;27.05;14.93;;;;;;;;;;5017363;28;20037;-75
2022/05/13 04:08:56;;;;;;;28.63;14.35;;;;;;;;;;5017036;28;20052;-75
2022/05/13 04:16:04;;;;;;;26.95;14.63;;;;;;;;;;5014032;28;20053;-75
2022/05/13 04:17:14;;;;;;;35.40;13.43;;;;;;;;;;5028184;28;20060;-75
2022/05/13 04:19:40;;;;;;;23.95;13.48;;;;;;;;;;5024658;28;20038;-75
2022/05/13 04:22:06;;;;;;;26.23;13.02;;;;;;;;;;5022142;28;20461;-75
2022/05/13 04:24:32;;;;;;;30.05;14.02;;;;;;;;;;5024629;28;20144;-75
2022/05/13 04:26:58;;;;;;;27.98;13.32;;;;;;;;;;5017129;28;20087;-75
2022/05/13 04:29:24;;;;;;;20.95;12.18;;;;;;;;;;5013753;28;20029;-75
2022/05/13 04:31:50;;;;;;;25.08;12.45;;;;;;;;;;5016848;28;20125;-74
2022/05/13 04:34:16;;;;;;;24.25;11.85;;;;;;;;;;5017505;28;20304;-74
2022/05/13 04:36:42;;;;;;;25.92;12.35;;;;;;;;;;5017305;28;20083;-73
2022/05/13 04:39:09;;;;;;;25.55;13.05;;;;;;;;;;5016457;28;20033;-73
2022/05/13 04:44:20;;;;;;;30.02;14.38;;;;;;;;;;5024143;28;20095;-73
2022/05/13 04:46:47;;;;;;;29.85;13.93;;;;;;;;;;5016320;28;20109;-73
2022/05/13 04:49:13;;;;;;;28.10;13.27;;;;;;;;;;5017312;28;20034;-73
2022/05/13 04:51:39;;;;;;;24.80;13.20;;;;;;;;;;5017279;28;20423;-74
2022/05/13 04:54:06;;;;;;;23.67;14.50;;;;;;;;;;5014642;28;20040;-73
2022/05/13 04:56:32;;;;;;;30.88;13.10;;;;;;;;;;5030032;28;20124;-73
2022/05/13 04:58:59;;;;;;;28.98;13.73;;;;;;;;;;5027083;28;20026;-73
2022/05/13 05:01:25;;;;;;;28.15;13.50;;;;;;;;;;5018915;28;20029;-73
2022/05/13 05:03:52;;;;;;;25.45;14.88;;;;;;;;;;5019087;28;20027;-73
2022/05/13 05:06:19;;;;;;;29.42;13.98;;;;;;;;;;5026472;28;20080;-73
2022/05/13 05:08:45;;;;;;;23.35;13.73;;;;;;;;;;5014475;28;20030;-73
2022/05/13 05:11:12;;;;;;;29.52;13.75;;;;;;;;;;5014898;28;20033;-74
2022/05/13 05:13:48;;;;;;;27.20;13.23;;;;;;;;;;5018101;28;20030;-74
2022/05/13 05:16:15;;;;;;;28.33;13.63;;;;;;;;;;5020433;28;20075;-73
2022/05/13 05:18:41;;;;;;;33.53;13.40;;;;;;;;;;5020679;28;20118;-73
2022/05/13 05:21:09;;;;;;;24.27;13.13;;;;;;;;;;5017959;28;20036;-74
2022/05/13 05:23:36;;;;;;;31.30;12.93;;;;;;;;;;5021563;28;20052;-72
2022/05/13 05:26:02;;;;;;;29.50;13.55;;;;;;;;;;5020566;28;20041;-71
2022/05/13 05:28:29;;;;;;;28.25;13.63;;;;;;;;;;5017826;28;20495;-73
2022/05/13 05:30:55;;;;;;;31.92;14.13;;;;;;;;;;5024664;28;20018;-73
2022/05/13 05:33:22;;;;;;;28.80;12.90;;;;;;;;;;5013815;28;20505;-74
2022/05/13 05:35:48;;;;;;;27.48;12.80;;;;;;;;;;5013989;28;20076;-74
2022/05/13 05:38:14;;;;;;;28.92;13.02;;;;;;;;;;5020079;28;20036;-73
2022/05/13 05:40:41;;;;;;;24.52;13.00;;;;;;;;;;5034324;28;20040;-75
2022/05/13 05:43:11;;;;;;;29.88;14.73;;;;;;;;;;5017509;28;20034;-73
2022/05/13 05:45:40;;;;;;;24.98;12.65;;;;;;;;;;5028087;28;20033;-76
2022/05/13 05:48:06;;;;;;;25.90;12.80;;;;;;;;;;5032046;28;20122;-74
2022/05/13 05:50:32;;;;;;;28.42;12.85;;;;;;;;;;5014158;28;20026;-77
2022/05/13 05:53:01;;;;;;;27.67;12.23;;;;;;;;;;5014681;28;20045;-76
2022/05/13 05:58:13;;;;;;;27.67;12.73;;;;;;;;;;5023575;28;20410;-75
2022/05/13 06:00:41;;;;;;;26.10;12.02;;;;;;;;;;5027183;28;20484;-76
2022/05/13 06:03:07;;;;;;;29.95;13.18;;;;;;;;;;5028489;28;20462;-76
2022/05/13 06:05:34;;;;;;;25.73;11.88;;;;;;;;;;5032596;28;20404;-75
2022/05/13 06:08:01;;;;;;;25.70;11.93;;;;;;;;;;5031897;28;20406;-75
2022/05/13 06:10:29;;;;;;;21.83;11.27;;;;;;;;;;5029263;28;20197;-72
2022/05/13 06:12:55;;;;;;;24.27;11.85;;;;;;;;;;5031555;28;20361;-72
2022/05/13 06:15:22;;;;;;;25.15;12.55;;;;;;;;;;5024616;28;20108;-72
2022/05/13 06:17:56;;;;;;;22.70;12.23;;;;;;;;;;5031119;28;20037;-71
2022/05/13 06:20:23;;;;;;;19.40;10.25;;;;;;;;;;5027234;28;20107;-71
2022/05/13 06:22:50;;;;;;;29.23;11.73;;;;;;;;;;5014035;28;20050;-72
2022/05/13 06:25:17;;;;;;;23.20;11.57;;;;;;;;;;5020788;28;20407;-71
2022/05/13 06:27:47;;;;;;;20.83;10.38;;;;;;;;;;5030742;28;20029;-71
2022/05/13 06:30:15;;;;;;;22.58;10.52;;;;;;;;;;5021851;28;20026;-71
2022/05/13 06:32:41;;;;;;;27.27;11.10;;;;;;;;;;5013019;28;20509;-72
2022/05/13 06:35:08;;;;;;;21.45;10.27;;;;;;;;;;5010307;28;20099;-72
2022/05/13 06:37:34;;;;;;;23.83;10.82;;;;;;;;;;5011564;28;20022;-72
2022/05/13 06:40:00;;;;;;;18.88;10.40;;;;;;;;;;5017627;28;20080;-72
2022/05/13 06:42:26;;;;;;;24.77;11.00;;;;;;;;;;5016288;28;20021;-73
2022/05/13 06:44:52;;;;;;;22.63;10.85;;;;;;;;;;5029366;28;20061;-71
2022/05/13 06:47:19;;;;;;;19.13;9.80;;;;;;;;;;5014222;28;20034;-72
2022/05/13 06:49:45;;;;;;;22.98;10.25;;;;;;;;;;5018433;28;20045;-72
2022/05/13 06:52:13;;;;;;;26.25;10.85;;;;;;;;;;5025463;28;20441;-72
2022/05/13 06:54:42;;;;;;;21.73;9.90;;;;;;;;;;5018651;28;20025;-73
2022/05/13 06:57:10;;;;;;;27.75;10.80;;;;;;;;;;5010940;28;20100;-73
2022/05/13 06:59:36;;;;;;;31.20;24.45;;;;;;;;;;5012268;28;20819;-74
2022/05/13 07:02:02;;;;;;;30.55;23.88;;;;;;;;;;5013636;28;20030;-73
2022/05/13 07:04:28;;;;;;;36.50;24.60;;;;;;;;;;5018830;28;20079;-72
2022/05/13 07:06:54;;;;;;;33.70;21.50;;;;;;;;;;5027643;28;20013;-73
2022/05/13 07:09:20;;;;;;;27.67;19.10;;;;;;;;;;5029845;28;20051;-73
2022/05/13 07:11:46;;;;;;;27.65;18.42;;;;;;;;;;5030373;28;20415;-73
2022/05/13 07:14:13;;;;;;;22.05;14.52;;;;;;;;;;5031972;28;20025;-73
2022/05/13 07:16:39;;;;;;;25.70;11.60;;;;;;;;;;5017148;28;20045;-73
2022/05/13 07:19:06;;;;;;;21.42;11.10;;;;;;;;;;5018854;28;20053;-73
2022/05/13 07:21:32;;;;;;;33.35;11.82;;;;;;;;;;5022329;28;20026;-74
2022/05/13 07:23:59;;;;;;;21.05;11.52;;;;;;;;;;5026568;28;20033;-72
2022/05/13 07:26:25;;;;;;;20.70;12.98;;;;;;;;;;5030715;28;20034;-72
2022/05/13 07:28:51;;;;;;;25.60;13.48;;;;;;;;;;5017791;28;20113;-72
2022/05/13 07:31:17;;;;;;;25.20;13.25;;;;;;;;;;5024847;28;20090;-74
2022/05/13 07:33:43;;;;;;;28.40;14.25;;;;;;;;;;5026314;28;20037;-74
2022/05/13 07:36:09;;;;;;;25.63;15.05;;;;;;;;;;5028692;28;20029;-74
2022/05/13 07:38:35;;;;;;;27.10;12.20;;;;;;;;;;5013962;28;20083;-74
2022/05/13 07:41:18;;;;;;;25.17;11.48;;;;;;;;;;5016523;28;20034;-74
2022/05/13 07:43:45;;;;;;;23.10;10.88;;;;;;;;;;5017934;28;20022;-74
2022/05/13 07:46:12;;;;;;;24.55;11.90;;;;;;;;;;5018438;28;20036;-74
2022/05/13 07:48:39;;;;;;;22.15;11.20;;;;;;;;;;5018248;28;20569;-74
2022/05/13 07:51:06;;;;;;;29.83;11.93;;;;;;;;;;5018178;28;20557;-74
2022/05/13 07:53:32;;;;;;;25.58;12.82;;;;;;;;;;5014159;28;20038;-74
2022/05/13 07:55:58;;;;;;;24.30;14.60;;;;;;;;;;5028903;28;20037;-74
2022/05/13 07:58:25;;;;;;;23.67;14.88;;;;;;;;;;5018670;28;20054;-74
2022/05/13 08:00:51;;;;;;;21.40;11.35;;;;;;;;;;5018206;28;20036;-74
2022/05/13 08:03:18;;;;;;;28.50;13.07;;;;;;;;;;5018070;28;20025;-74
2022/05/13 08:05:45;;;;;;;22.60;12.98;;;;;;;;;;5015443;28;20021;-74
2022/05/13 08:08:12;;;;;;;27.35;11.57;;;;;;;;;;5015755;28;20104;-74
2022/05/13 08:10:39;;;;;;;22.52;10.90;;;;;;;;;;5027604;28;20033;-74
2022/05/13 08:13:05;;;;;;;20.98;8.40;;;;;;;;;;5026355;28;20505;-74
2022/05/13 08:15:32;;;;;;;18.10;7.45;;;;;;;;;;5025633;28;20029;-74
2022/05/13 08:17:58;;;;;;;24.23;7.88;;;;;;;;;;5017015;28;20059;-74
2022/05/13 08:20:25;;;;;;;17.08;7.88;;;;;;;;;;5014276;28;20038;-74
2022/05/13 08:22:51;;;;;;;19.02;8.60;;;;;;;;;;5017368;28;20101;-74
2022/05/13 08:25:18;;;;;;;24.27;9.55;;;;;;;;;;5016623;28;20088;-74
2022/05/13 08:27:44;;;;;;;14.00;7.97;;;;;;;;;;5017933;28;20132;-74
2022/05/13 08:30:11;;;;;;;22.45;9.70;;;;;;;;;;5017701;28;20029;-74
2022/05/13 08:32:37;;;;;;;24.20;8.38;;;;;;;;;;5013991;28;20046;-72
2022/05/13 08:35:04;;;;;;;22.05;8.35;;;;;;;;;;5016539;28;20409;-72
2022/05/13 08:37:30;;;;;;;18.20;7.38;;;;;;;;;;5017764;28;20073;-72
2022/05/13 08:40:00;;;;;;;19.90;7.32;;;;;;;;;;5017700;28;20022;-72
2022/05/13 08:42:36;;;;;;;17.10;7.25;;;;;;;;;;5016496;28;20095;-72
2022/05/13 08:45:03;;;;;;;18.58;6.95;;;;;;;;;;5017244;28;20032;-72
2022/05/13 08:47:32;;;;;;;18.90;7.18;;;;;;;;;;5014456;28;20125;-72
2022/05/13 08:50:04;;;;;;;12.60;6.18;;;;;;;;;;5032288;28;20091;-72
2022/05/13 08:55:19;;;;;;;15.77;6.72;;;;;;;;;;5028237;28;20045;-72
2022/05/13 08:57:47;;;;;;;23.27;7.20;;;;;;;;;;5027099;28;20030;-72
2022/05/13 09:00:34;;;;;;;14.55;6.30;;;;;;;;;;5021461;28;20033;-72
2022/05/13 09:03:06;;;;;;;19.40;5.97;;;;;;;;;;5020756;28;20030;-72
2022/05/13 09:05:44;;;;;;;17.27;7.30;;;;;;;;;;5017369;28;20545;-72
2022/05/13 09:08:10;;;;;;;15.45;7.07;;;;;;;;;;5031662;28;20029;-72
2022/05/13 09:10:46;;;;;;;15.43;6.22;;;;;;;;;;5021595;28;20029;-72
2022/05/13 09:13:18;;;;;;;15.07;5.95;;;;;;;;;;5021007;28;20053;-72
2022/05/13 09:15:55;;;;;;;21.35;6.80;;;;;;;;;;5021084;28;20403;-72
2022/05/13 09:18:47;;;;;;;18.00;6.45;;;;;;;;;;5020931;28;20502;-72
2022/05/13 09:21:18;;;;;;;16.90;6.03;;;;;;;;;;5018316;28;20049;-72
2022/05/13 09:23:45;;;;;;;15.80;6.90;;;;;;;;;;5018496;28;20036;-73
2022/05/13 09:26:17;;;;;;;15.98;6.47;;;;;;;;;;5018626;28;20391;-73
2022/05/13 09:29:03;;;;;;;12.43;6.35;;;;;;;;;;5020261;28;20217;-73
2022/05/13 09:31:30;;;;;;;17.73;6.75;;;;;;;;;;5030032;28;20120;-73
2022/05/13 09:33:56;;;;;;;13.57;6.82;;;;;;;;;;5024720;28;20045;-73
2022/05/13 09:36:22;;;;;;;14.07;6.82;;;;;;;;;;5020351;28;20030;-73
2022/05/13 09:38:50;;;;;;;18.45;6.85;;;;;;;;;;5018443;28;20816;-73
2022/05/13 09:41:25;;;;;;;18.27;6.47;;;;;;;;;;5018072;28;20476;-73
2022/05/13 09:43:53;;;;;;;18.05;6.65;;;;;;;;;;5020032;28;20018;-74
2022/05/13 09:46:22;;;;;;;14.85;5.85;;;;;;;;;;5020714;28;20492;-73
2022/05/13 09:48:56;;;;;;;22.05;7.07;;;;;;;;;;5020069;28;20046;-73
2022/05/13 09:51:28;;;;;;;19.73;7.07;;;;;;;;;;5020194;28;20165;-75
2022/05/13 09:54:07;;;;;;;18.48;6.28;;;;;;;;;;5018948;28;20040;-73
2022/05/13 09:56:59;;;;;;;18.98;6.55;;;;;;;;;;5016270;28;20033;-73
2022/05/13 09:59:26;;;;;;;16.05;7.10;;;;;;;;;;5013305;28;20423;-73
2022/05/13 10:01:53;;;;;;;14.45;6.95;;;;;;;;;;5019281;28;20034;-73
2022/05/13 10:04:26;;;;;;;13.88;6.75;;;;;;;;;;5018756;28;20529;-73
2022/05/13 10:07:03;;;;;;;18.48;6.15;;;;;;;;;;5023681;28;20057;-73
2022/05/13 10:15:17;;;;;;;15.85;6.53;;;;;;;;;;5020157;28;20064;-73
2022/05/13 10:17:49;;;;;;;21.08;6.68;;;;;;;;;;5017112;28;20046;-73
2022/05/13 10:20:30;;;;;;;15.23;6.97;;;;;;;;;;5017412;28;20128;-74
2022/05/13 10:23:01;;;;;;;18.35;6.03;;;;;;;;;;5019379;28;20117;-73
2022/05/13 10:25:33;;;;;;;19.40;6.25;;;;;;;;;;5019827;28;20120;-73
2022/05/13 10:28:03;;;;;;;17.70;5.90;;;;;;;;;;5019648;28;20030;-73
2022/05/13 10:30:47;;;;;;;12.88;5.88;;;;;;;;;;5019796;28;20034;-72
2022/05/13 10:33:19;;;;;;;16.33;6.55;;;;;;;;;;5019526;28;20044;-73
2022/05/13 10:35:48;;;;;;;19.73;6.90;;;;;;;;;;5017031;28;20449;-73
2022/05/13 10:38:37;;;;;;;16.40;6.03;;;;;;;;;;5015783;28;20036;-74
2022/05/13 10:41:29;;;;;;;13.02;6.45;;;;;;;;;;5014784;28;20030;-73
2022/05/13 10:44:16;;;;;;;17.20;6.75;;;;;;;;;;4958037;28;20039;-73
2022/05/13 10:46:51;;;;;;;13.65;6.32;;;;;;;;;;4960136;28;20547;-73
2022/05/13 10:49:18;;;;;;;18.55;7.05;;;;;;;;;;4961079;28;20421;-73
2022/05/13 10:51:53;;;;;;;18.48;6.50;;;;;;;;;;4961446;28;20521;-74
2022/05/13 10:54:25;;;;;;;16.27;7.20;;;;;;;;;;4961321;28;20047;-75
2022/05/13 10:56:51;;;;;;;16.00;6.40;;;;;;;;;;4956544;28;20515;-73
2022/05/13 10:59:24;;;;;;;16.88;6.95;;;;;;;;;;4967485;28;20030;-73
2022/05/13 11:01:52;;;;;;;16.77;6.53;;;;;;;;;;4954042;28;20039;-73
2022/05/13 11:04:19;;;;;;;15.20;5.97;;;;;;;;;;4955687;28;20442;-73
2022/05/13 11:06:54;;;;;;;15.68;6.22;;;;;;;;;;4955858;28;20042;-72
2022/05/13 11:09:23;;;;;;;16.85;5.70;;;;;;;;;;4961039;28;20038;-72
2022/05/13 11:11:50;;;;;;;16.30;5.93;;;;;;;;;;4959039;28;20404;-72
2022/05/13 11:14:34;;;;;;;18.02;6.60;;;;;;;;;;4956484;28;20062;-73
2022/05/13 11:17:09;;;;;;;16.63;6.43;;;;;;;;;;4972419;28;20066;-73
2022/05/13 11:19:38;;;;;;;12.98;5.53;;;;;;;;;;4962897;28;20050;-72
2022/05/13 11:22:15;;;;;;;16.58;6.30;;;;;;;;;;5018735;28;20026;-73
2022/05/13 11:27:35;;;;;;;13.93;5.75;;;;;;;;;;5019248;28;20079;-73
2022/05/13 11:30:08;;;;;;;12.70;5.97;;;;;;;;;;5029757;28;20075;-74
2022/05/13 11:32:41;;;;;;;17.92;7.13;;;;;;;;;;5014329;28;20479;-70
2022/05/13 11:35:07;;;;;;;14.90;6.23;;;;;;;;;;5016611;28;20025;-72
2022/05/13 11:37:38;;;;;;;17.50;6.28;;;;;;;;;;5018523;28;20057;-70
2022/05/13 11:40:07;;;;;;;18.60;6.72;;;;;;;;;;5016761;28;20030;-72
2022/05/13 11:45:43;;;;;;;15.88;6.28;;;;;;;;;;5018448;28;20100;-71
2022/05/13 11:48:25;;;;;;;24.10;6.88;;;;;;;;;;5017879;28;20060;-72
2022/05/13 11:50:51;;;;;;;19.92;5.55;;;;;;;;;;5015986;28;20022;-72
2022/05/13 11:53:36;;;;;;;18.02;6.55;;;;;;;;;;5014178;28;20410;-73
2022/05/13 11:56:13;;;;;;;14.65;5.88;;;;;;;;;;5031581;28;20095;-74
2022/05/13 11:58:50;;;;;;;16.40;5.82;;;;;;;;;;5012154;28;20445;-77
2022/05/13 12:01:37;;;;;;;12.40;5.65;;;;;;;;;;5029470;28;20025;-75
2022/05/13 12:04:12;;;;;;;16.95;5.75;;;;;;;;;;4958036;28;20426;-74
2022/05/13 12:06:50;;;;;;;18.60;10.02;;;;;;;;;;4955188;28;20126;-74
2022/05/13 12:09:16;;;;;;;15.57;5.78;;;;;;;;;;4954794;28;20058;-74
2022/05/13 12:11:52;;;;;;;14.88;5.85;;;;;;;;;;4940456;28;20578;-72
2022/05/13 12:14:21;;;;;;;15.90;6.35;;;;;;;;;;4971126;28;20034;-71
2022/05/13 12:17:14;;;;;;;16.52;5.90;;;;;;;;;;4971000;28;20591;-72
2022/05/13 12:19:40;;;;;;;14.45;6.07;;;;;;;;;;4863953;29;20182;-72
2022/05/13 12:22:10;;;;;;;17.27;5.90;;;;;;;;;;4856893;29;20148;-70
2022/05/13 12:24:55;;;;;;;18.88;6.80;;;;;;;;;;4874405;29;20044;-72
2022/05/13 12:27:31;;;;;;;18.15;6.00;;;;;;;;;;4873717;29;20089;-71
2022/05/13 12:29:57;;;;;;;19.13;6.30;;;;;;;;;;4860316;29;20613;-72
2022/05/13 12:32:25;;;;;;;16.38;5.82;;;;;;;;;;4979274;23;20065;-78
2022/05/13 12:37:47;;;;;;;15.07;5.82;;;;;;;;;;5015809;28;20083;-77
2022/05/13 12:40:13;;;;;;;17.70;5.78;;;;;;;;;;5016583;28;20030;-78
2022/05/13 12:42:44;;;;;;;14.68;5.53;;;;;;;;;;5018269;28;20076;-77
2022/05/13 12:45:22;;;;;;;16.83;6.13;;;;;;;;;;5026272;28;20025;-78
2022/05/13 12:48:06;;;;;;;14.45;5.78;;;;;;;;;;5013729;28;20030;-77
2022/05/13 12:50:39;;;;;;;16.80;5.90;;;;;;;;;;5011447;28;20029;-77
2022/05/13 12:53:24;;;;;;;17.77;6.47;;;;;;;;;;5027222;28;20037;-77
2022/05/13 12:55:50;;;;;;;18.55;6.05;;;;;;;;;;5015113;28;20026;-76
2022/05/13 12:58:19;;;;;;;16.02;5.60;;;;;;;;;;5027712;28;20242;-77
2022/05/13 13:00:46;;;;;;;12.02;6.03;;;;;;;;;;5022039;28;20108;-78
2022/05/13 13:03:13;;;;;;;17.45;6.85;;;;;;;;;;5026360;28;20076;-78
2022/05/13 13:05:42;;;;;;;19.13;6.32;;;;;;;;;;5013135;28;20022;-78
2022/05/13 13:08:14;;;;;;;17.83;5.93;;;;;;;;;;5013730;28;20056;-76
2022/05/13 13:10:57;;;;;;;16.67;6.22;;;;;;;;;;5024776;28;20053;-76
2022/05/13 13:13:32;;;;;;;16.02;6.90;;;;;;;;;;5013379;28;20037;-76
2022/05/13 13:16:00;;;;;;;17.35;6.82;;;;;;;;;;5012996;28;20038;-77
2022/05/13 13:18:37;;;;;;;18.10;6.30;;;;;;;;;;5012492;28;20034;-77
2022/05/13 13:21:12;;;;;;;15.30;5.97;;;;;;;;;;5012277;28;20103;-77
2022/05/13 13:23:42;;;;;;;15.70;6.43;;;;;;;;;;5009524;28;20547;-77
2022/05/13 13:26:10;;;;;;;14.13;6.20;;;;;;;;;;5010679;28;20034;-76
2022/05/13 13:28:39;;;;;;;21.45;6.70;;;;;;;;;;5022312;28;20152;-77
2022/05/13 13:31:07;;;;;;;14.38;6.53;;;;;;;;;;5021228;28;20430;-77
2022/05/13 13:33:34;;;;;;;14.05;6.18;;;;;;;;;;5019712;28;20045;-76
2022/05/13 13:36:09;;;;;;;14.88;6.28;;;;;;;;;;5011679;28;20033;-76
2022/05/13 13:38:36;;;;;;;13.40;6.45;;;;;;;;;;5012292;28;20021;-76
2022/05/13 13:41:02;;;;;;;17.67;6.20;;;;;;;;;;5015328;28;20505;-77
2022/05/13 13:43:36;;;;;;;15.75;6.32;;;;;;;;;;5016492;28;20045;-76
2022/05/13 13:46:02;;;;;;;;;;;;;;;;;;5014716;28;20033;-77
2022/05/13 13:48:40;;;;;;;16.70;6.85;;;;;;;;;;5021712;28;20222;-76
2022/05/13 13:51:07;;;;;;;19.23;6.78;;;;;;;;;;5038110;28;20048;-76
2022/05/13 13:53:34;;;;;;;17.17;5.75;;;;;;;;;;5028064;28;20045;-76
2022/05/13 13:56:08;;;;;;;19.25;6.50;;;;;;;;;;5024760;28;20288;-76
2022/05/13 13:58:34;;;;;;;16.60;6.68;;;;;;;;;;5012498;28;20056;-77
2022/05/13 14:01:08;;;;;;;15.65;5.97;;;;;;;;;;5018496;28;20052;-76
2022/05/13 14:03:34;;;;;;;18.20;5.80;;;;;;;;;;5020281;28;20026;-76
2022/05/13 14:06:02;;;;;;;19.05;6.32;;;;;;;;;;5013267;28;20034;-76
2022/05/13 14:08:30;;;;;;;16.40;5.97;;;;;;;;;;5011271;28;20125;-76
2022/05/13 14:11:03;;;;;;;17.00;5.72;;;;;;;;;;5017143;28;20493;-76
2022/05/13 14:13:37;;;;;;;15.73;6.68;;;;;;;;;;5013878;28;20052;-76
2022/05/13 14:16:03;;;;;;;16.48;6.05;;;;;;;;;;5014350;28;20087;-76
2022/05/13 14:18:29;;;;;;;15.07;6.20;;;;;;;;;;5014521;28;20542;-76
2022/05/13 14:20:56;;;;;;;13.52;5.57;;;;;;;;;;5033166;22;20148;-70
2022/05/13 14:23:30;;;;;;;14.55;5.55;;;;;;;;;;5012686;28;20034;-69
2022/05/13 14:25:56;;;;;;;23.20;5.95;;;;;;;;;;5028182;28;20041;-69
2022/05/13 14:28:27;;;;;;;16.48;6.25;;;;;;;;;;5029589;28;20534;-69
2022/05/13 14:31:01;;;;;;;15.35;6.03;;;;;;;;;;5019439;28;20037;-70
2022/05/13 14:33:29;;;;;;;11.38;5.65;;;;;;;;;;5015477;28;20034;-72
2022/05/13 14:36:02;;;;;;;12.18;6.20;;;;;;;;;;5016792;28;20021;-71
2022/05/13 14:41:27;;;;;;;12.10;5.30;;;;;;;;;;5030674;28;20060;-69
2022/05/13 14:43:55;;;;;;;15.90;5.90;;;;;;;;;;5029256;28;20026;-71
2022/05/13 14:46:25;;;;;;;13.27;6.05;;;;;;;;;;5016959;28;20030;-69
2022/05/13 14:48:51;;;;;;;20.02;6.18;;;;;;;;;;5018266;28;20092;-70
2022/05/13 14:51:22;;;;;;;17.80;5.40;;;;;;;;;;5025965;28;20099;-71
2022/05/13 14:53:51;;;;;;;15.40;6.40;;;;;;;;;;5025448;28;20507;-71
2022/05/13 14:56:17;;;;;;;15.20;6.15;;;;;;;;;;5019260;28;20113;-71
2022/05/13 14:58:52;;;;;;;15.00;5.50;;;;;;;;;;5016730;28;20034;-71
2022/05/13 15:01:21;;;;;;;15.60;5.68;;;;;;;;;;5016946;28;20116;-71
2022/05/13 15:03:49;;;;;;;14.13;5.40;;;;;;;;;;5015960;28;20033;-71
2022/05/13 15:06:20;;;;;;;11.75;5.20;;;;;;;;;;5016773;28;20040;-72
2022/05/13 15:08:49;;;;;;;14.63;5.63;;;;;;;;;;5011653;28;20030;-72
2022/05/13 15:11:17;;;;;;;13.57;5.97;;;;;;;;;;5013577;28;20041;-71